sensor_id;sensor_type;location;lat;lon;timestamp;pressure;altitude;pressure_sealevel;temperature;humidity
45345;BME280;31078;48.304;11.896;2023-05-25T00:01:19;96565.38;;;12.96;62.40
45345;BME280;31078;48.304;11.896;2023-05-25T00:03:45;96564.06;;;13.02;63.10
45345;BME280;31078;48.304;11.896;2023-05-25T00:06:13;96558.59;;;13.02;63.13
45345;BME280;31078;48.304;11.896;2023-05-25T00:08:40;96564.69;;;13.07;63.96
45345;BME280;31078;48.304;11.896;2023-05-25T00:11:07;96565.63;;;13.12;63.66
45345;BME280;31078;48.304;11.896;2023-05-25T00:13:34;96562.09;;;13.11;62.48
45345;BME280;31078;48.304;11.896;2023-05-25T00:16:00;96557.28;;;13.08;63.60
45345;BME280;31078;48.304;11.896;2023-05-25T00:18:27;96559.53;;;13.06;62.84
45345;BME280;31078;48.304;11.896;2023-05-25T00:20:53;96563.88;;;13.07;62.56
45345;BME280;31078;48.304;11.896;2023-05-25T00:23:20;96561.16;;;13.07;63.61
45345;BME280;31078;48.304;11.896;2023-05-25T00:25:46;96554.06;;;13.06;63.34
45345;BME280;31078;48.304;11.896;2023-05-25T00:28:14;96563.09;;;12.98;63.77
45345;BME280;31078;48.304;11.896;2023-05-25T00:30:41;96572.16;;;12.90;63.09
45345;BME280;31078;48.304;11.896;2023-05-25T00:33:07;96563.91;;;12.98;64.67
45345;BME280;31078;48.304;11.896;2023-05-25T00:35:34;96566.00;;;13.01;64.59
45345;BME280;31078;48.304;11.896;2023-05-25T00:38:01;96579.66;;;13.01;64.07
45345;BME280;31078;48.304;11.896;2023-05-25T00:40:28;96575.00;;;13.02;65.15
45345;BME280;31078;48.304;11.896;2023-05-25T00:42:54;96575.00;;;13.02;65.06
45345;BME280;31078;48.304;11.896;2023-05-25T00:45:22;96573.41;;;13.01;65.00
45345;BME280;31078;48.304;11.896;2023-05-25T00:47:50;96572.59;;;13.00;65.33
45345;BME280;31078;48.304;11.896;2023-05-25T00:50:22;96575.63;;;12.99;63.86
45345;BME280;31078;48.304;11.896;2023-05-25T00:52:55;96579.50;;;12.98;64.68
45345;BME280;31078;48.304;11.896;2023-05-25T00:55:23;96574.38;;;12.96;64.71
45345;BME280;31078;48.304;11.896;2023-05-25T00:57:50;96571.31;;;12.98;64.71
45345;BME280;31078;48.304;11.896;2023-05-25T01:00:19;96577.25;;;13.00;66.56
45345;BME280;31078;48.304;11.896;2023-05-25T01:02:48;96577.75;;;12.93;66.00
45345;BME280;31078;48.304;11.896;2023-05-25T01:05:17;96570.59;;;12.80;65.32
45345;BME280;31078;48.304;11.896;2023-05-25T01:07:45;96576.00;;;12.89;65.38
45345;BME280;31078;48.304;11.896;2023-05-25T01:10:13;96575.34;;;12.92;66.06
45345;BME280;31078;48.304;11.896;2023-05-25T01:12:41;96579.22;;;12.91;65.27
45345;BME280;31078;48.304;11.896;2023-05-25T01:15:10;96571.34;;;12.89;64.86
45345;BME280;31078;48.304;11.896;2023-05-25T01:17:37;96563.78;;;12.95;65.55
45345;BME280;31078;48.304;11.896;2023-05-25T01:20:06;96560.03;;;12.99;66.88
45345;BME280;31078;48.304;11.896;2023-05-25T01:22:36;96554.28;;;12.92;67.33
45345;BME280;31078;48.304;11.896;2023-05-25T01:25:08;96562.50;;;12.84;66.99
45345;BME280;31078;48.304;11.896;2023-05-25T01:27:39;96552.88;;;12.86;67.25
45345;BME280;31078;48.304;11.896;2023-05-25T01:30:13;96554.66;;;12.82;68.33
45345;BME280;31078;48.304;11.896;2023-05-25T01:32:41;96551.75;;;12.87;69.29
45345;BME280;31078;48.304;11.896;2023-05-25T01:35:09;96554.03;;;12.68;69.50
45345;BME280;31078;48.304;11.896;2023-05-25T01:37:44;96552.91;;;12.77;70.04
45345;BME280;31078;48.304;11.896;2023-05-25T01:40:12;96555.94;;;12.85;70.54
45345;BME280;31078;48.304;11.896;2023-05-25T01:42:38;96551.13;;;12.82;71.29
45345;BME280;31078;48.304;11.896;2023-05-25T01:45:07;96542.31;;;12.67;72.26
45345;BME280;31078;48.304;11.896;2023-05-25T01:47:39;96560.78;;;12.79;73.10
45345;BME280;31078;48.304;11.896;2023-05-25T01:50:15;96558.34;;;12.77;73.82
45345;BME280;31078;48.304;11.896;2023-05-25T01:52:50;96560.28;;;12.86;74.06
45345;BME280;31078;48.304;11.896;2023-05-25T01:55:19;96567.97;;;12.84;74.64
45345;BME280;31078;48.304;11.896;2023-05-25T01:57:49;96568.28;;;12.91;75.07
45345;BME280;31078;48.304;11.896;2023-05-25T02:00:23;96564.00;;;12.72;77.45
45345;BME280;31078;48.304;11.896;2023-05-25T02:02:51;96564.16;;;12.76;78.41
45345;BME280;31078;48.304;11.896;2023-05-25T02:05:19;96561.75;;;12.74;79.95
45345;BME280;31078;48.304;11.896;2023-05-25T02:07:47;96562.06;;;12.73;81.63
45345;BME280;31078;48.304;11.896;2023-05-25T02:10:13;96566.03;;;12.84;81.06
45345;BME280;31078;48.304;11.896;2023-05-25T02:12:40;96562.16;;;12.94;81.37
45345;BME280;31078;48.304;11.896;2023-05-25T02:15:07;96553.41;;;12.71;83.94
45345;BME280;31078;48.304;11.896;2023-05-25T02:17:34;96555.75;;;12.90;82.99
45345;BME280;31078;48.304;11.896;2023-05-25T02:20:01;96556.69;;;12.94;83.27
45345;BME280;31078;48.304;11.896;2023-05-25T02:22:28;96555.44;;;12.83;84.28
45345;BME280;31078;48.304;11.896;2023-05-25T02:24:56;96550.94;;;12.87;84.24
45345;BME280;31078;48.304;11.896;2023-05-25T02:27:23;96542.03;;;12.98;84.31
45345;BME280;31078;48.304;11.896;2023-05-25T02:29:49;96546.88;;;12.93;84.52
45345;BME280;31078;48.304;11.896;2023-05-25T02:32:17;96547.06;;;12.88;85.19
45345;BME280;31078;48.304;11.896;2023-05-25T02:34:43;96549.63;;;12.93;84.76
45345;BME280;31078;48.304;11.896;2023-05-25T02:37:11;96542.56;;;12.92;84.60
45345;BME280;31078;48.304;11.896;2023-05-25T02:39:38;96547.75;;;12.85;84.63
45345;BME280;31078;48.304;11.896;2023-05-25T02:42:06;96536.44;;;12.95;84.47
45345;BME280;31078;48.304;11.896;2023-05-25T02:44:32;96541.09;;;12.94;84.33
45345;BME280;31078;48.304;11.896;2023-05-25T02:46:59;96541.25;;;12.98;83.87
45345;BME280;31078;48.304;11.896;2023-05-25T02:49:25;96548.97;;;12.96;83.93
45345;BME280;31078;48.304;11.896;2023-05-25T02:51:51;96547.00;;;13.05;83.60
45345;BME280;31078;48.304;11.896;2023-05-25T02:54:18;96562.91;;;13.12;83.76
45345;BME280;31078;48.304;11.896;2023-05-25T02:56:44;96556.63;;;13.11;83.68
45345;BME280;31078;48.304;11.896;2023-05-25T02:59:12;96556.56;;;13.20;83.29
45345;BME280;31078;48.304;11.896;2023-05-25T03:01:39;96564.16;;;13.23;83.23
45345;BME280;31078;48.304;11.896;2023-05-25T03:04:06;96563.00;;;13.15;83.31
45345;BME280;31078;48.304;11.896;2023-05-25T03:06:32;96566.81;;;12.93;83.35
45345;BME280;31078;48.304;11.896;2023-05-25T03:09:00;96565.00;;;13.06;83.00
45345;BME280;31078;48.304;11.896;2023-05-25T03:11:29;96561.41;;;13.14;82.74
45345;BME280;31078;48.304;11.896;2023-05-25T03:13:55;96560.88;;;13.00;83.70
45345;BME280;31078;48.304;11.896;2023-05-25T03:16:23;96568.88;;;13.05;83.14
45345;BME280;31078;48.304;11.896;2023-05-25T03:18:50;96573.00;;;12.73;83.73
45345;BME280;31078;48.304;11.896;2023-05-25T03:21:16;96565.06;;;12.89;83.18
45345;BME280;31078;48.304;11.896;2023-05-25T03:23:42;96572.16;;;12.90;83.42
45345;BME280;31078;48.304;11.896;2023-05-25T03:26:09;96565.06;;;12.89;83.19
45345;BME280;31078;48.304;11.896;2023-05-25T03:28:35;96566.72;;;12.72;84.45
45345;BME280;31078;48.304;11.896;2023-05-25T03:31:02;96562.16;;;12.94;83.32
45345;BME280;31078;48.304;11.896;2023-05-25T03:33:30;96558.31;;;12.95;83.00
45345;BME280;31078;48.304;11.896;2023-05-25T03:35:57;96567.06;;;12.79;83.01
45345;BME280;31078;48.304;11.896;2023-05-25T03:38:23;96559.59;;;12.89;82.58
45345;BME280;31078;48.304;11.896;2023-05-25T03:40:50;96561.44;;;12.76;83.21
45345;BME280;31078;48.304;11.896;2023-05-25T03:43:16;96561.44;;;12.76;83.42
45345;BME280;31078;48.304;11.896;2023-05-25T03:45:43;96561.22;;;12.90;82.74
45345;BME280;31078;48.304;11.896;2023-05-25T03:48:09;96562.81;;;12.91;82.96
45345;BME280;31078;48.304;11.896;2023-05-25T03:50:37;96559.34;;;12.73;83.37
45345;BME280;31078;48.304;11.896;2023-05-25T03:53:05;96554.81;;;12.86;83.34
45345;BME280;31078;48.304;11.896;2023-05-25T03:55:31;96563.00;;;12.86;82.81
45345;BME280;31078;48.304;11.896;2023-05-25T03:57:58;96559.66;;;12.71;82.97
45345;BME280;31078;48.304;11.896;2023-05-25T04:00:24;96566.28;;;12.70;82.93
45345;BME280;31078;48.304;11.896;2023-05-25T04:02:51;96562.91;;;12.65;82.92
45345;BME280;31078;48.304;11.896;2023-05-25T04:05:17;96560.06;;;12.44;83.65
45345;BME280;31078;48.304;11.896;2023-05-25T04:07:45;96562.91;;;12.65;83.11
45345;BME280;31078;48.304;11.896;2023-05-25T04:10:12;96565.78;;;12.68;82.54
45345;BME280;31078;48.304;11.896;2023-05-25T04:12:38;96567.41;;;12.69;82.36
45345;BME280;31078;48.304;11.896;2023-05-25T04:15:06;96565.03;;;12.59;82.15
45345;BME280;31078;48.304;11.896;2023-05-25T04:17:33;96569.47;;;12.72;81.93
45345;BME280;31078;48.304;11.896;2023-05-25T04:20:00;96568.66;;;12.80;81.65
45345;BME280;31078;48.304;11.896;2023-05-25T04:22:26;96568.69;;;12.63;81.76
45345;BME280;31078;48.304;11.896;2023-05-25T04:24:54;96576.25;;;12.58;81.75
45345;BME280;31078;48.304;11.896;2023-05-25T04:27:21;96572.31;;;12.38;82.18
45345;BME280;31078;48.304;11.896;2023-05-25T04:29:47;96568.22;;;12.61;82.16
45345;BME280;31078;48.304;11.896;2023-05-25T04:32:14;96571.75;;;12.62;81.75
45345;BME280;31078;48.304;11.896;2023-05-25T04:34:41;96570.41;;;12.76;81.62
45345;BME280;31078;48.304;11.896;2023-05-25T04:37:08;96578.09;;;12.83;82.09
45345;BME280;31078;48.304;11.896;2023-05-25T04:39:35;96572.19;;;12.72;80.26
45345;BME280;31078;48.304;11.896;2023-05-25T04:42:03;96579.91;;;12.79;80.12
45345;BME280;31078;48.304;11.896;2023-05-25T04:44:30;96580.41;;;12.72;80.56
45345;BME280;31078;48.304;11.896;2023-05-25T04:46:57;96585.22;;;12.67;79.17
45345;BME280;31078;48.304;11.896;2023-05-25T04:49:25;96586.06;;;12.59;79.81
45345;BME280;31078;48.304;11.896;2023-05-25T04:51:51;96586.34;;;12.74;79.32
45345;BME280;31078;48.304;11.896;2023-05-25T04:54:18;96587.00;;;12.71;79.24
45345;BME280;31078;48.304;11.896;2023-05-25T04:56:45;96588.91;;;12.79;79.91
45345;BME280;31078;48.304;11.896;2023-05-25T04:59:13;96588.25;;;12.83;78.08
45345;BME280;31078;48.304;11.896;2023-05-25T05:01:39;96594.38;;;12.79;77.52
45345;BME280;31078;48.304;11.896;2023-05-25T05:04:06;96593.09;;;12.77;77.66
45345;BME280;31078;48.304;11.896;2023-05-25T05:06:33;96592.91;;;12.82;77.45
45345;BME280;31078;48.304;11.896;2023-05-25T05:09:00;96583.88;;;12.90;78.97
45345;BME280;31078;48.304;11.896;2023-05-25T05:11:27;96601.91;;;12.83;76.79
45345;BME280;31078;48.304;11.896;2023-05-25T05:13:54;96604.97;;;12.90;77.00
45345;BME280;31078;48.304;11.896;2023-05-25T05:16:22;96601.38;;;12.98;76.74
45345;BME280;31078;48.304;11.896;2023-05-25T05:18:49;96601.38;;;12.98;76.91
45345;BME280;31078;48.304;11.896;2023-05-25T05:21:15;96604.47;;;12.88;75.09
45345;BME280;31078;48.304;11.896;2023-05-25T05:23:42;96598.38;;;12.73;75.31
45345;BME280;31078;48.304;11.896;2023-05-25T05:26:08;96606.72;;;12.86;75.48
45345;BME280;31078;48.304;11.896;2023-05-25T05:28:35;96611.22;;;12.90;75.94
45345;BME280;31078;48.304;11.896;2023-05-25T05:31:02;96609.59;;;12.89;74.68
45345;BME280;31078;48.304;11.896;2023-05-25T05:33:30;96617.13;;;13.01;74.13
45345;BME280;31078;48.304;11.896;2023-05-25T05:35:56;96618.56;;;12.98;74.28
45345;BME280;31078;48.304;11.896;2023-05-25T05:38:22;96613.72;;;13.04;73.87
45345;BME280;31078;48.304;11.896;2023-05-25T05:40:49;96612.91;;;13.12;73.93
45345;BME280;31078;48.304;11.896;2023-05-25T05:43:15;96621.91;;;13.21;75.59
45345;BME280;31078;48.304;11.896;2023-05-25T05:45:42;96616.91;;;13.23;76.23
45345;BME280;31078;48.304;11.896;2023-05-25T05:48:09;96618.81;;;13.31;74.67
45345;BME280;31078;48.304;11.896;2023-05-25T05:50:37;96621.72;;;13.18;72.70
45345;BME280;31078;48.304;11.896;2023-05-25T05:53:04;96626.34;;;13.35;72.50
45345;BME280;31078;48.304;11.896;2023-05-25T05:55:31;96630.00;;;13.47;74.28
45345;BME280;31078;48.304;11.896;2023-05-25T05:57:58;96625.72;;;13.20;72.03
45345;BME280;31078;48.304;11.896;2023-05-25T06:00:24;96624.81;;;13.16;70.90
45345;BME280;31078;48.304;11.896;2023-05-25T06:02:51;96634.78;;;13.12;71.42
45345;BME280;31078;48.304;11.896;2023-05-25T06:05:18;96636.84;;;13.15;71.90
45345;BME280;31078;48.304;11.896;2023-05-25T06:07:46;96637.00;;;13.27;71.62
45345;BME280;31078;48.304;11.896;2023-05-25T06:10:13;96639.41;;;13.20;72.35
45345;BME280;31078;48.304;11.896;2023-05-25T06:12:40;96643.91;;;13.25;72.29
45345;BME280;31078;48.304;11.896;2023-05-25T06:15:07;96648.59;;;13.24;72.51
45345;BME280;31078;48.304;11.896;2023-05-25T06:17:33;96661.00;;;13.04;72.53
45345;BME280;31078;48.304;11.896;2023-05-25T06:20:01;96643.66;;;13.00;73.15
45345;BME280;31078;48.304;11.896;2023-05-25T06:22:27;96652.66;;;13.01;72.76
45345;BME280;31078;48.304;11.896;2023-05-25T06:24:55;96652.50;;;13.06;73.55
45345;BME280;31078;48.304;11.896;2023-05-25T06:27:22;96652.84;;;12.96;73.57
45345;BME280;31078;48.304;11.896;2023-05-25T06:29:48;96646.75;;;12.82;73.32
45345;BME280;31078;48.304;11.896;2023-05-25T06:32:15;96653.31;;;12.89;73.78
45345;BME280;31078;48.304;11.896;2023-05-25T06:34:41;96657.00;;;13.02;74.87
45345;BME280;31078;48.304;11.896;2023-05-25T06:37:08;96659.56;;;13.07;73.19
45345;BME280;31078;48.304;11.896;2023-05-25T06:39:35;96660.41;;;12.90;73.65
45345;BME280;31078;48.304;11.896;2023-05-25T06:42:03;96664.88;;;13.03;73.95
45345;BME280;31078;48.304;11.896;2023-05-25T06:44:29;96660.53;;;13.11;74.89
45345;BME280;31078;48.304;11.896;2023-05-25T06:46:56;96668.69;;;13.20;73.96
45345;BME280;31078;48.304;11.896;2023-05-25T06:49:22;96668.75;;;13.02;75.41
45345;BME280;31078;48.304;11.896;2023-05-25T06:51:49;96669.19;;;13.13;75.48
45345;BME280;31078;48.304;11.896;2023-05-25T06:54:16;96677.84;;;13.32;75.94
45345;BME280;31078;48.304;11.896;2023-05-25T06:56:43;96670.78;;;13.31;75.80
45345;BME280;31078;48.304;11.896;2023-05-25T06:59:11;96678.13;;;13.40;75.72
45345;BME280;31078;48.304;11.896;2023-05-25T07:01:38;96684.47;;;13.23;75.83
45345;BME280;31078;48.304;11.896;2023-05-25T07:04:05;96674.50;;;13.27;75.96
45345;BME280;31078;48.304;11.896;2023-05-25T07:06:31;96677.34;;;13.30;75.99
45345;BME280;31078;48.304;11.896;2023-05-25T07:08:58;96686.53;;;13.35;76.53
45345;BME280;31078;48.304;11.896;2023-05-25T07:11:24;96681.38;;;13.42;76.76
45345;BME280;31078;48.304;11.896;2023-05-25T07:13:52;96683.31;;;13.32;75.92
45345;BME280;31078;48.304;11.896;2023-05-25T07:16:20;96680.53;;;13.41;76.69
45345;BME280;31078;48.304;11.896;2023-05-25T07:18:46;96675.22;;;13.45;76.24
45345;BME280;31078;48.304;11.896;2023-05-25T07:21:13;96668.72;;;13.58;76.78
45345;BME280;31078;48.304;11.896;2023-05-25T07:23:39;96677.41;;;13.60;76.38
45345;BME280;31078;48.304;11.896;2023-05-25T07:26:06;96674.44;;;13.74;76.32
45345;BME280;31078;48.304;11.896;2023-05-25T07:28:32;96670.53;;;13.83;76.76
45345;BME280;31078;48.304;11.896;2023-05-25T07:30:59;96672.47;;;14.04;77.10
45345;BME280;31078;48.304;11.896;2023-05-25T07:33:27;96678.44;;;14.06;75.01
45345;BME280;31078;48.304;11.896;2023-05-25T07:35:53;96680.44;;;14.18;76.00
45345;BME280;31078;48.304;11.896;2023-05-25T07:38:20;96676.53;;;13.98;75.64
45345;BME280;31078;48.304;11.896;2023-05-25T07:40:46;96679.06;;;13.82;75.71
45345;BME280;31078;48.304;11.896;2023-05-25T07:43:13;96684.41;;;13.78;76.59
45345;BME280;31078;48.304;11.896;2023-05-25T07:45:39;96684.06;;;13.80;76.51
45345;BME280;31078;48.304;11.896;2023-05-25T07:48:06;96687.78;;;13.75;77.48
45345;BME280;31078;48.304;11.896;2023-05-25T07:50:34;96688.94;;;13.74;77.19
45345;BME280;31078;48.304;11.896;2023-05-25T07:53:01;96684.88;;;13.80;77.69
45345;BME280;31078;48.304;11.896;2023-05-25T07:55:27;96687.59;;;13.80;77.40
45345;BME280;31078;48.304;11.896;2023-05-25T07:57:54;96687.50;;;13.98;77.51
45345;BME280;31078;48.304;11.896;2023-05-25T08:00:20;96700.03;;;13.99;77.19
45345;BME280;31078;48.304;11.896;2023-05-25T08:02:47;96695.44;;;13.91;76.57
45345;BME280;31078;48.304;11.896;2023-05-25T08:05:14;96700.34;;;14.06;76.92
45345;BME280;31078;48.304;11.896;2023-05-25T08:07:43;96706.28;;;14.08;77.07
45345;BME280;31078;48.304;11.896;2023-05-25T08:10:10;96700.91;;;14.20;77.10
45345;BME280;31078;48.304;11.896;2023-05-25T08:12:36;96718.53;;;14.31;76.88
45345;BME280;31078;48.304;11.896;2023-05-25T08:15:04;96716.25;;;14.33;77.21
45345;BME280;31078;48.304;11.896;2023-05-25T08:17:30;96724.88;;;14.44;77.49
45345;BME280;31078;48.304;11.896;2023-05-25T08:19:57;96719.94;;;14.38;77.36
45345;BME280;31078;48.304;11.896;2023-05-25T08:22:23;96722.41;;;14.30;76.68
45345;BME280;31078;48.304;11.896;2023-05-25T08:24:51;96710.59;;;14.39;76.65
45345;BME280;31078;48.304;11.896;2023-05-25T08:27:18;96712.38;;;14.34;76.32
45345;BME280;31078;48.304;11.896;2023-05-25T08:29:44;96708.66;;;14.39;76.48
45345;BME280;31078;48.304;11.896;2023-05-25T08:32:11;96706.84;;;14.43;76.93
45345;BME280;31078;48.304;11.896;2023-05-25T08:34:37;96711.66;;;14.46;76.86
45345;BME280;31078;48.304;11.896;2023-05-25T08:37:04;96712.78;;;14.45;75.86
45345;BME280;31078;48.304;11.896;2023-05-25T08:39:31;96724.34;;;14.30;76.32
45345;BME280;31078;48.304;11.896;2023-05-25T08:41:59;96722.69;;;14.38;76.59
45345;BME280;31078;48.304;11.896;2023-05-25T08:44:26;96731.75;;;14.29;76.57
45345;BME280;31078;48.304;11.896;2023-05-25T08:46:55;96729.75;;;14.39;77.37
45345;BME280;31078;48.304;11.896;2023-05-25T08:49:22;96726.06;;;14.34;76.22
45345;BME280;31078;48.304;11.896;2023-05-25T08:51:50;96725.44;;;14.38;76.61
45345;BME280;31078;48.304;11.896;2023-05-25T08:54:18;96726.84;;;14.65;76.19
45345;BME280;31078;48.304;11.896;2023-05-25T08:56:48;96726.44;;;14.75;76.76
45345;BME280;31078;48.304;11.896;2023-05-25T08:59:25;96730.69;;;14.72;75.63
45345;BME280;31078;48.304;11.896;2023-05-25T09:01:57;96729.78;;;14.80;76.26
45345;BME280;31078;48.304;11.896;2023-05-25T09:04:27;96728.19;;;14.79;75.86
45345;BME280;31078;48.304;11.896;2023-05-25T09:06:55;96734.00;;;14.78;76.42
45345;BME280;31078;48.304;11.896;2023-05-25T09:09:22;96739.75;;;14.64;75.91
45345;BME280;31078;48.304;11.896;2023-05-25T09:11:49;96733.00;;;14.61;76.16
45345;BME280;31078;48.304;11.896;2023-05-25T09:14:16;96740.28;;;14.78;76.38
45345;BME280;31078;48.304;11.896;2023-05-25T09:16:44;96733.88;;;14.74;76.19
45345;BME280;31078;48.304;11.896;2023-05-25T09:19:12;96734.81;;;14.78;76.67
45345;BME280;31078;48.304;11.896;2023-05-25T09:21:38;96735.81;;;14.74;76.44
45345;BME280;31078;48.304;11.896;2023-05-25T09:24:06;96739.94;;;14.80;76.85
45345;BME280;31078;48.304;11.896;2023-05-25T09:26:33;96745.78;;;14.78;76.36
45345;BME280;31078;48.304;11.896;2023-05-25T09:28:59;96748.19;;;14.80;76.31
45345;BME280;31078;48.304;11.896;2023-05-25T09:31:27;96741.81;;;14.88;76.49
45345;BME280;31078;48.304;11.896;2023-05-25T09:33:55;96756.16;;;14.73;75.91
45345;BME280;31078;48.304;11.896;2023-05-25T09:36:24;96759.50;;;14.78;76.03
45345;BME280;31078;48.304;11.896;2023-05-25T09:38:51;96748.78;;;14.85;76.27
45345;BME280;31078;48.304;11.896;2023-05-25T09:41:18;96751.69;;;15.01;76.97
45345;BME280;31078;48.304;11.896;2023-05-25T09:43:46;96746.94;;;15.10;74.24
45345;BME280;31078;48.304;11.896;2023-05-25T09:46:12;96756.47;;;15.25;74.60
45345;BME280;31078;48.304;11.896;2023-05-25T09:48:39;96745.31;;;15.43;72.17
45345;BME280;31078;48.304;11.896;2023-05-25T09:51:10;96759.97;;;15.59;73.62
45345;BME280;31078;48.304;11.896;2023-05-25T09:53:36;96756.59;;;15.74;71.48
45345;BME280;31078;48.304;11.896;2023-05-25T09:58:30;96748.38;;;16.11;72.77
45345;BME280;31078;48.304;11.896;2023-05-25T10:00:58;96748.38;;;16.35;72.68
45345;BME280;31078;48.304;11.896;2023-05-25T10:03:25;96747.88;;;16.58;70.13
45345;BME280;31078;48.304;11.896;2023-05-25T10:05:53;96747.19;;;16.49;69.80
45345;BME280;31078;48.304;11.896;2023-05-25T10:08:21;96750.41;;;16.38;69.55
45345;BME280;31078;48.304;11.896;2023-05-25T10:10:49;96749.69;;;16.54;69.66
45345;BME280;31078;48.304;11.896;2023-05-25T10:13:19;96752.25;;;16.47;67.95
45345;BME280;31078;48.304;11.896;2023-05-25T10:15:47;96754.78;;;16.39;67.79
45345;BME280;31078;48.304;11.896;2023-05-25T10:18:14;96757.06;;;16.37;67.90
45345;BME280;31078;48.304;11.896;2023-05-25T10:20:41;96751.78;;;16.57;69.12
45345;BME280;31078;48.304;11.896;2023-05-25T10:23:10;96752.00;;;16.52;67.13
45345;BME280;31078;48.304;11.896;2023-05-25T10:25:42;96751.28;;;16.79;67.93
45345;BME280;31078;48.304;11.896;2023-05-25T10:28:13;96753.22;;;17.07;66.65
45345;BME280;31078;48.304;11.896;2023-05-25T10:30:42;96747.22;;;17.17;66.57
45345;BME280;31078;48.304;11.896;2023-05-25T10:33:09;96757.09;;;17.18;66.33
45345;BME280;31078;48.304;11.896;2023-05-25T10:35:36;96748.44;;;17.47;66.34
45345;BME280;31078;48.304;11.896;2023-05-25T10:38:04;96745.53;;;17.56;64.91
45345;BME280;31078;48.304;11.896;2023-05-25T10:40:32;96740.19;;;17.91;65.98
45345;BME280;31078;48.304;11.896;2023-05-25T10:43:01;96752.25;;;18.18;65.35
45345;BME280;31078;48.304;11.896;2023-05-25T10:45:28;96753.03;;;18.19;62.19
45345;BME280;31078;48.304;11.896;2023-05-25T10:47:55;96753.59;;;18.60;63.65
45345;BME280;31078;48.304;11.896;2023-05-25T10:50:22;96748.38;;;18.74;63.33
45345;BME280;31078;48.304;11.896;2023-05-25T10:52:58;96747.50;;;18.35;62.93
45345;BME280;31078;48.304;11.896;2023-05-25T10:55:25;96752.91;;;18.31;62.11
45345;BME280;31078;48.304;11.896;2023-05-25T10:58:11;96752.16;;;18.15;65.24
45345;BME280;31078;48.304;11.896;2023-05-25T11:00:38;96753.94;;;18.23;64.28
45345;BME280;31078;48.304;11.896;2023-05-25T11:03:05;96754.09;;;18.14;63.33
45345;BME280;31078;48.304;11.896;2023-05-25T11:05:36;96751.59;;;18.25;63.98
45345;BME280;31078;48.304;11.896;2023-05-25T11:08:04;96750.44;;;18.26;64.49
45345;BME280;31078;48.304;11.896;2023-05-25T11:10:52;96741.03;;;18.27;64.62
45345;BME280;31078;48.304;11.896;2023-05-25T11:13:36;96746.84;;;18.41;65.09
45345;BME280;31078;48.304;11.896;2023-05-25T11:16:13;96739.63;;;18.52;65.32
45345;BME280;31078;48.304;11.896;2023-05-25T11:18:42;96741.00;;;18.62;65.25
45345;BME280;31078;48.304;11.896;2023-05-25T11:21:11;96741.59;;;18.87;63.97
45345;BME280;31078;48.304;11.896;2023-05-25T11:23:38;96734.19;;;18.91;62.30
45345;BME280;31078;48.304;11.896;2023-05-25T11:26:19;96738.81;;;18.87;61.73
45345;BME280;31078;48.304;11.896;2023-05-25T11:28:49;96732.94;;;18.69;64.09
45345;BME280;31078;48.304;11.896;2023-05-25T11:31:19;96727.06;;;18.71;62.00
45345;BME280;31078;48.304;11.896;2023-05-25T11:33:47;96721.41;;;19.02;64.37
45345;BME280;31078;48.304;11.896;2023-05-25T11:36:16;96723.28;;;19.18;65.08
45345;BME280;31078;48.304;11.896;2023-05-25T11:38:44;96729.38;;;18.88;61.08
45345;BME280;31078;48.304;11.896;2023-05-25T11:41:17;96719.81;;;19.01;59.84
45345;BME280;31078;48.304;11.896;2023-05-25T11:43:45;96717.94;;;19.06;61.29
45345;BME280;31078;48.304;11.896;2023-05-25T11:46:14;96728.28;;;18.93;61.30
45345;BME280;31078;48.304;11.896;2023-05-25T11:48:43;96725.81;;;18.88;63.66
45345;BME280;31078;48.304;11.896;2023-05-25T11:51:10;96720.69;;;19.06;61.99
45345;BME280;31078;48.304;11.896;2023-05-25T11:53:41;96709.91;;;19.20;60.77
45345;BME280;31078;48.304;11.896;2023-05-25T11:56:08;96702.78;;;19.19;60.67
45345;BME280;31078;48.304;11.896;2023-05-25T11:58:34;96706.53;;;19.30;62.50
45345;BME280;31078;48.304;11.896;2023-05-25T12:01:13;96704.03;;;19.64;62.57
45345;BME280;31078;48.304;11.896;2023-05-25T12:03:40;96708.31;;;19.61;58.81
45345;BME280;31078;48.304;11.896;2023-05-25T12:06:06;96696.38;;;19.57;60.30
45345;BME280;31078;48.304;11.896;2023-05-25T12:08:33;96701.56;;;19.59;59.63
45345;BME280;31078;48.304;11.896;2023-05-25T12:11:00;96699.41;;;19.48;59.79
45345;BME280;31078;48.304;11.896;2023-05-25T12:13:27;96703.72;;;19.26;58.45
45345;BME280;31078;48.304;11.896;2023-05-25T12:15:54;96705.53;;;19.38;60.12
45345;BME280;31078;48.304;11.896;2023-05-25T12:18:23;96699.09;;;19.53;58.29
45345;BME280;31078;48.304;11.896;2023-05-25T12:20:49;96694.75;;;19.52;58.94
45345;BME280;31078;48.304;11.896;2023-05-25T12:23:16;96702.41;;;19.63;60.73
45345;BME280;31078;48.304;11.896;2023-05-25T12:25:42;96695.19;;;19.77;59.67
45345;BME280;31078;48.304;11.896;2023-05-25T12:28:09;96694.63;;;19.91;59.91
45345;BME280;31078;48.304;11.896;2023-05-25T12:30:36;96693.91;;;19.94;59.03
45345;BME280;31078;48.304;11.896;2023-05-25T12:33:03;96694.00;;;20.01;60.03
45345;BME280;31078;48.304;11.896;2023-05-25T12:35:43;96697.25;;;20.07;58.94
45345;BME280;31078;48.304;11.896;2023-05-25T12:38:10;96687.38;;;20.10;58.71
45345;BME280;31078;48.304;11.896;2023-05-25T12:40:36;96693.47;;;20.19;59.41
45345;BME280;31078;48.304;11.896;2023-05-25T12:43:03;96699.00;;;20.19;57.25
45345;BME280;31078;48.304;11.896;2023-05-25T12:45:30;96691.66;;;20.30;60.13
45345;BME280;31078;48.304;11.896;2023-05-25T12:47:57;96686.44;;;20.25;57.99
45345;BME280;31078;48.304;11.896;2023-05-25T12:50:23;96688.25;;;20.40;56.98
45345;BME280;31078;48.304;11.896;2023-05-25T12:52:59;96685.00;;;20.34;58.02
45345;BME280;31078;48.304;11.896;2023-05-25T12:55:27;96679.84;;;20.33;59.76